createdAt,value
2022-09-20T00:00:01.000Z,1.9
2022-09-20T00:03:34.000Z,1.5
2022-09-20T00:07:06.000Z,1.5
2022-09-20T00:10:39.000Z,1.2
2022-09-20T00:14:12.000Z,1.6
2022-09-20T00:17:44.000Z,1.5
2022-09-20T00:20:35.000Z,1.8
2022-09-20T00:24:08.000Z,1.6
2022-09-20T00:27:41.000Z,1.5
2022-09-20T00:31:13.000Z,1.4
2022-09-20T00:34:46.000Z,1.8
2022-09-20T00:38:19.000Z,1.5
2022-09-20T00:41:51.000Z,1.4
2022-09-20T00:45:24.000Z,1.8
2022-09-20T00:48:57.000Z,1.8
2022-09-20T00:52:30.000Z,2
2022-09-20T00:56:02.000Z,2.1
2022-09-20T00:58:54.000Z,2.5
2022-09-20T01:02:26.000Z,2.1
2022-09-20T01:05:59.000Z,2.2
2022-09-20T01:09:32.000Z,2.6
2022-09-20T01:13:04.000Z,2.9
2022-09-20T01:16:37.000Z,2.7
2022-09-20T01:20:09.000Z,3.6
2022-09-20T01:23:42.000Z,3.2
2022-09-20T01:27:15.000Z,3.3
2022-09-20T01:30:47.000Z,2.9
2022-09-20T01:34:20.000Z,3.2
2022-09-20T01:37:11.000Z,3.1
2022-09-20T01:40:44.000Z,2.3
2022-09-20T01:44:16.000Z,3
2022-09-20T01:47:49.000Z,2.8
2022-09-20T01:51:22.000Z,2.8
2022-09-20T01:54:55.000Z,2.6
2022-09-20T01:58:27.000Z,2.3
2022-09-20T02:02:00.000Z,2.6
2022-09-20T02:05:33.000Z,2.3
2022-09-20T02:09:05.000Z,2.8
2022-09-20T02:12:38.000Z,2.1
2022-09-20T02:15:29.000Z,2.2
2022-09-20T02:19:02.000Z,2.2
2022-09-20T02:22:35.000Z,2.1
2022-09-20T02:26:07.000Z,2.1
2022-09-20T02:29:40.000Z,2.5
2022-09-20T02:33:13.000Z,2.2
2022-09-20T02:36:45.000Z,2.2
2022-09-20T02:40:18.000Z,1.8
2022-09-20T02:43:51.000Z,2
2022-09-20T02:47:23.000Z,2
2022-09-20T02:50:56.000Z,1.7
2022-09-20T02:53:47.000Z,2.3
2022-09-20T02:57:20.000Z,2
2022-09-20T03:00:53.000Z,2.5
2022-09-20T03:04:26.000Z,2
2022-09-20T03:07:58.000Z,2.6
2022-09-20T03:11:31.000Z,2.4
2022-09-20T03:15:03.000Z,2.2
2022-09-20T03:18:36.000Z,2.4
2022-09-20T03:22:09.000Z,2.3
2022-09-20T03:25:41.000Z,2.6
2022-09-20T03:29:14.000Z,2.7
2022-09-20T03:32:05.000Z,2.8
2022-09-20T03:35:38.000Z,2.9
2022-09-20T03:39:11.000Z,3.1
2022-09-20T03:42:45.000Z,3.5
2022-09-20T03:46:18.000Z,3.2
2022-09-20T03:49:50.000Z,2.9
2022-09-20T03:53:23.000Z,3.3
2022-09-20T03:56:55.000Z,2.6
2022-09-20T04:00:28.000Z,4
2022-09-20T04:04:01.000Z,3.3
2022-09-20T04:07:33.000Z,3
2022-09-20T04:10:24.000Z,4.4
2022-09-20T04:13:57.000Z,4.1
2022-09-20T04:17:36.000Z,3
2022-09-20T04:21:08.000Z,2.8
2022-09-20T04:24:41.000Z,2.9
2022-09-20T04:28:14.000Z,3.2
2022-09-20T04:31:46.000Z,2.9
2022-09-20T04:35:19.000Z,2.7
2022-09-20T04:38:52.000Z,2.6
2022-09-20T04:42:25.000Z,2.9
2022-09-20T04:45:57.000Z,2.5
2022-09-20T04:48:48.000Z,2.4
2022-09-20T04:52:21.000Z,2.2
2022-09-20T04:55:54.000Z,2.7
2022-09-20T04:59:26.000Z,2.3
2022-09-20T05:02:59.000Z,2.5
2022-09-20T05:06:32.000Z,2.2
2022-09-20T05:10:04.000Z,3.4
2022-09-20T05:13:37.000Z,3.5
2022-09-20T05:17:09.000Z,3.2
2022-09-20T05:20:42.000Z,2.9
2022-09-20T05:24:15.000Z,2.8
2022-09-20T05:27:06.000Z,2.7
2022-09-20T05:30:38.000Z,2.8
2022-09-20T05:34:11.000Z,2.8
2022-09-20T05:37:44.000Z,3.7
2022-09-20T05:41:16.000Z,3.9
2022-09-20T05:44:49.000Z,4.3
2022-09-20T05:48:21.000Z,4
2022-09-20T05:51:54.000Z,3.3
2022-09-20T05:55:26.000Z,4.7
2022-09-20T05:58:59.000Z,4.8
2022-09-20T06:02:35.000Z,5.5
2022-09-20T06:05:26.000Z,5.9
2022-09-20T06:08:59.000Z,5.2
2022-09-20T06:12:32.000Z,5
2022-09-20T06:16:04.000Z,4.7
2022-09-20T06:19:37.000Z,4.5
2022-09-20T06:23:10.000Z,6.8
2022-09-20T06:26:42.000Z,4.8
2022-09-20T06:30:15.000Z,5.2
2022-09-20T06:33:48.000Z,6
2022-09-20T06:37:20.000Z,5
2022-09-20T06:40:53.000Z,4.6
2022-09-20T06:43:44.000Z,4.3
2022-09-20T06:47:17.000Z,5.7
2022-09-20T06:50:50.000Z,4.5
2022-09-20T06:54:22.000Z,5.2
2022-09-20T06:57:55.000Z,5.2
2022-09-20T07:01:27.000Z,5.1
2022-09-20T07:05:00.000Z,5.6
2022-09-20T07:08:33.000Z,5.8
2022-09-20T07:12:05.000Z,6.8
2022-09-20T07:15:38.000Z,4.8
2022-09-20T07:19:11.000Z,6.1
2022-09-20T07:22:01.000Z,6
2022-09-20T07:25:34.000Z,5.2
2022-09-20T07:29:06.000Z,5.6
2022-09-20T07:32:39.000Z,6
2022-09-20T07:36:12.000Z,7.4
2022-09-20T07:39:44.000Z,7.4
2022-09-20T07:43:17.000Z,5.9
2022-09-20T07:46:49.000Z,5.2
2022-09-20T07:50:22.000Z,5.2
2022-09-20T07:53:55.000Z,4.6
2022-09-20T07:57:28.000Z,3.4
2022-09-20T08:00:19.000Z,3.2
2022-09-20T08:03:51.000Z,3.1
2022-09-20T08:07:24.000Z,2.9
2022-09-20T08:10:57.000Z,2.8
2022-09-20T08:14:59.000Z,3
2022-09-20T08:18:37.000Z,2.9
2022-09-20T08:22:09.000Z,2.9
2022-09-20T08:25:42.000Z,2.5
2022-09-20T08:29:15.000Z,2.4
2022-09-20T08:32:47.000Z,2.4
2022-09-20T08:36:20.000Z,2.4
2022-09-20T08:43:21.000Z,2.4
2022-09-20T08:46:57.000Z,2.1
2022-09-20T08:50:30.000Z,2.3
2022-09-20T08:54:09.000Z,3
2022-09-20T08:57:41.000Z,2.4
2022-09-20T09:01:14.000Z,2.6
2022-09-20T09:04:47.000Z,2.3
2022-09-20T09:08:20.000Z,2
2022-09-20T09:11:52.000Z,2.1
2022-09-20T09:15:25.000Z,3
2022-09-20T09:18:16.000Z,2.5
2022-09-20T09:21:48.000Z,2.4
2022-09-20T09:25:21.000Z,2.4
2022-09-20T09:28:54.000Z,2.5
2022-09-20T09:32:26.000Z,2.5
2022-09-20T09:35:59.000Z,2.5
2022-09-20T09:39:31.000Z,2.3
2022-09-20T09:43:04.000Z,1.9
2022-09-20T09:46:37.000Z,2.3
2022-09-20T09:50:09.000Z,2.4
2022-09-20T09:53:42.000Z,3.1
2022-09-20T09:56:33.000Z,2.1
2022-09-20T10:00:06.000Z,2.2
2022-09-20T10:03:46.000Z,2.4
2022-09-20T10:07:19.000Z,1.9
2022-09-20T10:10:51.000Z,2
2022-09-20T10:14:24.000Z,1.8
2022-09-20T10:17:56.000Z,1.7
2022-09-20T10:21:29.000Z,2
2022-09-20T10:25:33.000Z,2.4
2022-09-20T10:29:05.000Z,1.9
2022-09-20T10:32:38.000Z,1.6
2022-09-20T10:35:30.000Z,1.7
2022-09-20T10:39:02.000Z,1.8
2022-09-20T10:42:35.000Z,1.7
2022-09-20T10:46:08.000Z,1.5
2022-09-20T10:49:57.000Z,1.6
2022-09-20T10:53:30.000Z,1.8
2022-09-20T10:57:02.000Z,1.8
2022-09-20T11:00:35.000Z,1.8
2022-09-20T11:04:08.000Z,1.6
2022-09-20T11:07:41.000Z,1.5
2022-09-20T11:11:13.000Z,1.4
2022-09-20T11:14:04.000Z,1.6
2022-09-20T11:17:37.000Z,1.6
2022-09-20T11:21:10.000Z,1.5
2022-09-20T11:24:42.000Z,1.5
2022-09-20T11:28:15.000Z,1.5
2022-09-20T11:31:48.000Z,1.9
2022-09-20T11:35:20.000Z,2
2022-09-20T11:38:53.000Z,1.1
2022-09-20T11:42:26.000Z,1
2022-09-20T11:45:58.000Z,1.3
2022-09-20T11:49:53.000Z,1
2022-09-20T11:52:44.000Z,1.3
2022-09-20T11:56:17.000Z,1.6
2022-09-20T11:59:49.000Z,1.4
2022-09-20T12:03:26.000Z,1.4
2022-09-20T12:06:59.000Z,1.4
2022-09-20T12:10:38.000Z,16.2
2022-09-20T12:14:11.000Z,3
2022-09-20T12:17:43.000Z,3.5
2022-09-20T12:21:16.000Z,3.2
2022-09-20T12:24:49.000Z,2.5
2022-09-20T12:28:21.000Z,7.8
2022-09-20T12:31:12.000Z,3.6
2022-09-20T12:34:45.000Z,1.8
2022-09-20T12:38:18.000Z,2
2022-09-20T12:41:50.000Z,2.2
2022-09-20T12:45:23.000Z,2.5
2022-09-20T12:48:56.000Z,1.6
2022-09-20T12:52:28.000Z,1.6
2022-09-20T12:56:01.000Z,2.1
2022-09-20T12:59:33.000Z,1.4
2022-09-20T13:03:12.000Z,0.8
2022-09-20T13:06:45.000Z,0.5
2022-09-20T13:09:36.000Z,0.8
2022-09-20T13:13:09.000Z,0.5
2022-09-20T13:16:41.000Z,0.6
2022-09-20T13:20:14.000Z,0.9
2022-09-20T13:23:47.000Z,0.9
2022-09-20T13:27:19.000Z,2.6
2022-09-20T13:30:52.000Z,1.5
2022-09-20T13:34:25.000Z,3.2
2022-09-20T13:37:57.000Z,0.9
2022-09-20T13:41:30.000Z,1.2
2022-09-20T13:45:22.000Z,1
2022-09-20T13:48:17.000Z,0.9
2022-09-20T13:51:50.000Z,0.9
2022-09-20T13:55:40.000Z,0.7
2022-09-20T13:59:12.000Z,0.7
2022-09-20T14:02:45.000Z,0.7
2022-09-20T14:06:17.000Z,0.9
2022-09-20T14:09:50.000Z,0.8
2022-09-20T14:13:23.000Z,0.7
2022-09-20T14:16:55.000Z,0.7
2022-09-20T14:20:28.000Z,0.7
2022-09-20T14:24:00.000Z,1
2022-09-20T14:26:52.000Z,1
2022-09-20T14:30:27.000Z,0.8
2022-09-20T14:34:00.000Z,1.1
2022-09-20T14:37:33.000Z,0.7
2022-09-20T14:41:06.000Z,0.8
2022-09-20T14:44:38.000Z,0.7
2022-09-20T14:48:11.000Z,0.9
2022-09-20T14:51:43.000Z,0.9
2022-09-20T14:55:16.000Z,0.8
2022-09-20T14:58:49.000Z,0.6
2022-09-20T15:02:21.000Z,1
2022-09-20T15:05:12.000Z,0.8
2022-09-20T15:08:45.000Z,0.9
2022-09-20T15:12:17.000Z,3.5
2022-09-20T15:15:50.000Z,9.6
2022-09-20T15:19:23.000Z,12.9
2022-09-20T15:22:55.000Z,2.3
2022-09-20T15:26:28.000Z,0.9
2022-09-20T15:30:00.000Z,1
2022-09-20T15:33:33.000Z,0.7
2022-09-20T15:37:06.000Z,1
2022-09-20T15:40:39.000Z,0.8
2022-09-20T15:43:30.000Z,0.9
2022-09-20T15:47:02.000Z,1.1
2022-09-20T15:50:41.000Z,0.8
2022-09-20T15:54:13.000Z,0.9
2022-09-20T15:57:46.000Z,1.3
2022-09-20T16:01:18.000Z,0.8
2022-09-20T16:04:51.000Z,1.4
2022-09-20T16:08:24.000Z,1.4
2022-09-20T16:11:56.000Z,1.5
2022-09-20T16:15:29.000Z,1.7
2022-09-20T16:19:02.000Z,2.1
2022-09-20T16:21:53.000Z,2.1
2022-09-20T16:25:26.000Z,1.7
2022-09-20T16:28:58.000Z,2.1
2022-09-20T16:32:31.000Z,2.6
2022-09-20T16:36:04.000Z,2.1
2022-09-20T16:39:37.000Z,1.3
2022-09-20T16:43:09.000Z,1.4
2022-09-20T16:46:42.000Z,1.2
2022-09-20T16:50:15.000Z,1.6
2022-09-20T16:53:47.000Z,1.1
2022-09-20T16:57:20.000Z,0.8
2022-09-20T17:00:11.000Z,0.7
2022-09-20T17:03:44.000Z,0.7
2022-09-20T17:07:16.000Z,0.7
2022-09-20T17:10:53.000Z,0.9
2022-09-20T17:14:25.000Z,1.6
2022-09-20T17:17:58.000Z,1.1
2022-09-20T17:21:31.000Z,1.2
2022-09-20T17:25:04.000Z,1.5
2022-09-20T17:28:36.000Z,0.9
2022-09-20T17:32:09.000Z,1.3
2022-09-20T17:35:42.000Z,1.9
2022-09-20T17:38:33.000Z,1.5
2022-09-20T17:42:06.000Z,1.2
2022-09-20T17:45:38.000Z,1.7
2022-09-20T17:49:11.000Z,1.8
2022-09-20T17:52:43.000Z,1.3
2022-09-20T17:56:16.000Z,1.2
2022-09-20T17:59:49.000Z,1.3
2022-09-20T18:03:21.000Z,1.1
2022-09-20T18:06:54.000Z,1.2
2022-09-20T18:10:27.000Z,0.9
2022-09-20T18:13:59.000Z,11
2022-09-20T18:16:50.000Z,11.8
2022-09-20T18:20:23.000Z,5.3
2022-09-20T18:23:56.000Z,1.3
2022-09-20T18:27:28.000Z,3.7
2022-09-20T18:31:01.000Z,6.3
2022-09-20T18:34:34.000Z,5.7
2022-09-20T18:38:06.000Z,2.9
2022-09-20T18:41:39.000Z,3.6
2022-09-20T18:45:11.000Z,3.1
2022-09-20T18:48:44.000Z,3
2022-09-20T18:52:17.000Z,5
2022-09-20T18:55:08.000Z,2.5
2022-09-20T18:58:41.000Z,1.4
2022-09-20T19:02:13.000Z,3.1
2022-09-20T19:05:46.000Z,2.3
2022-09-20T19:09:18.000Z,5.5
2022-09-20T19:12:51.000Z,3.2
2022-09-20T19:16:23.000Z,2.7
2022-09-20T19:19:56.000Z,1.9
2022-09-20T19:23:29.000Z,1.5
2022-09-20T19:27:02.000Z,1.7
2022-09-20T19:30:34.000Z,1.4
2022-09-20T19:33:25.000Z,1.6
2022-09-20T19:36:58.000Z,1.4
2022-09-20T19:40:31.000Z,1.3
2022-09-20T19:44:03.000Z,1.4
2022-09-20T19:47:36.000Z,1.1
2022-09-20T19:51:09.000Z,1.4
2022-09-20T19:54:41.000Z,1.4
2022-09-20T19:58:14.000Z,1.6
2022-09-20T20:01:47.000Z,1.7
2022-09-20T20:05:19.000Z,2
2022-09-20T20:08:52.000Z,1.5
2022-09-20T20:11:43.000Z,1.4
2022-09-20T20:15:15.000Z,1.5
2022-09-20T20:18:48.000Z,2
2022-09-20T20:22:21.000Z,1.8
2022-09-20T20:25:53.000Z,1.4
2022-09-20T20:29:26.000Z,1.4
2022-09-20T20:32:59.000Z,3
2022-09-20T20:36:31.000Z,1.5
2022-09-20T20:40:04.000Z,1.1
2022-09-20T20:43:37.000Z,1.3
2022-09-20T20:47:09.000Z,1.4
2022-09-20T20:50:01.000Z,1.4
2022-09-20T20:53:33.000Z,2.3
2022-09-20T20:57:06.000Z,3.3
2022-09-20T21:00:38.000Z,2.4
2022-09-20T21:04:11.000Z,1.5
2022-09-20T21:07:44.000Z,1.2
2022-09-20T21:11:16.000Z,1.1
2022-09-20T21:14:49.000Z,1.1
2022-09-20T21:18:21.000Z,1
2022-09-20T21:21:54.000Z,1.4
2022-09-20T21:25:27.000Z,1.2
2022-09-20T21:28:18.000Z,1.3
2022-09-20T21:31:50.000Z,1.2
2022-09-20T21:35:23.000Z,1.2
2022-09-20T21:38:56.000Z,5.5
2022-09-20T21:42:28.000Z,7.6
2022-09-20T21:46:01.000Z,4.2
2022-09-20T21:49:34.000Z,1.8
2022-09-20T21:53:06.000Z,0.9
2022-09-20T21:56:39.000Z,1.1
2022-09-20T22:00:11.000Z,1.1
2022-09-20T22:03:44.000Z,1
2022-09-20T22:06:35.000Z,1.3
2022-09-20T22:10:08.000Z,1
2022-09-20T22:13:40.000Z,1.7
2022-09-20T22:17:13.000Z,1.2
2022-09-20T22:20:46.000Z,1.1
2022-09-20T22:24:18.000Z,1.2
2022-09-20T22:27:51.000Z,1.6
2022-09-20T22:31:23.000Z,1.2
2022-09-20T22:34:56.000Z,1
2022-09-20T22:38:28.000Z,1.3
2022-09-20T22:42:01.000Z,1.3
2022-09-20T22:44:53.000Z,1.5
2022-09-20T22:48:25.000Z,1.4
2022-09-20T22:51:58.000Z,0.9
2022-09-20T22:55:30.000Z,1.1
2022-09-20T22:59:03.000Z,1.1
2022-09-20T23:02:36.000Z,1.2
2022-09-20T23:06:08.000Z,1
2022-09-20T23:09:41.000Z,1.2
2022-09-20T23:13:14.000Z,1
2022-09-20T23:16:47.000Z,1
2022-09-20T23:20:20.000Z,1.4
2022-09-20T23:23:11.000Z,1.2
2022-09-20T23:26:43.000Z,1.3
2022-09-20T23:30:16.000Z,1.3
2022-09-20T23:33:48.000Z,1.4
2022-09-20T23:37:21.000Z,1.4
2022-09-20T23:40:53.000Z,1.9
2022-09-20T23:44:26.000Z,1.7
2022-09-20T23:47:59.000Z,1.4
2022-09-20T23:51:31.000Z,1.4
2022-09-20T23:55:04.000Z,1.8
2022-09-20T23:58:37.000Z,1.9
